sensor_id;sensor_type;location;lat;lon;timestamp;P1;durP1;ratioP1;P2;durP2;ratioP2
59189;SDS011;50749;51.636;4.948;2023-04-24T00:00:05;0.60;;;0.40;;
59189;SDS011;50749;51.636;4.948;2023-04-24T00:02:32;0.47;;;0.40;;
59189;SDS011;50749;51.636;4.948;2023-04-24T00:04:58;0.73;;;0.43;;
59189;SDS011;50749;51.636;4.948;2023-04-24T00:07:28;0.68;;;0.40;;
59189;SDS011;50749;51.636;4.948;2023-04-24T00:09:54;0.98;;;0.40;;
59189;SDS011;50749;51.636;4.948;2023-04-24T00:12:20;1.50;;;0.77;;
59189;SDS011;50749;51.636;4.948;2023-04-24T00:14:46;0.30;;;0.30;;
59189;SDS011;50749;51.636;4.948;2023-04-24T00:17:12;0.40;;;0.40;;
59189;SDS011;50749;51.636;4.948;2023-04-24T00:19:38;0.30;;;0.30;;
59189;SDS011;50749;51.636;4.948;2023-04-24T00:22:04;0.65;;;0.40;;
59189;SDS011;50749;51.636;4.948;2023-04-24T00:24:30;0.75;;;0.35;;
59189;SDS011;50749;51.636;4.948;2023-04-24T00:26:57;0.85;;;0.35;;
59189;SDS011;50749;51.636;4.948;2023-04-24T00:29:22;0.73;;;0.40;;
59189;SDS011;50749;51.636;4.948;2023-04-24T00:31:48;1.05;;;0.32;;
59189;SDS011;50749;51.636;4.948;2023-04-24T00:34:14;0.40;;;0.30;;
59189;SDS011;50749;51.636;4.948;2023-04-24T00:36:40;0.52;;;0.30;;
59189;SDS011;50749;51.636;4.948;2023-04-24T00:39:06;0.30;;;0.20;;
59189;SDS011;50749;51.636;4.948;2023-04-24T00:41:34;0.40;;;0.30;;
59189;SDS011;50749;51.636;4.948;2023-04-24T00:44:00;0.60;;;0.40;;
59189;SDS011;50749;51.636;4.948;2023-04-24T00:46:26;0.40;;;0.30;;
59189;SDS011;50749;51.636;4.948;2023-04-24T00:48:52;0.63;;;0.40;;
59189;SDS011;50749;51.636;4.948;2023-04-24T00:51:18;0.32;;;0.28;;
59189;SDS011;50749;51.636;4.948;2023-04-24T00:53:45;0.40;;;0.30;;
59189;SDS011;50749;51.636;4.948;2023-04-24T00:56:11;0.77;;;0.50;;
59189;SDS011;50749;51.636;4.948;2023-04-24T00:58:36;0.43;;;0.30;;
59189;SDS011;50749;51.636;4.948;2023-04-24T01:01:03;0.50;;;0.40;;
59189;SDS011;50749;51.636;4.948;2023-04-24T01:03:32;0.60;;;0.47;;
59189;SDS011;50749;51.636;4.948;2023-04-24T01:05:59;0.50;;;0.32;;
59189;SDS011;50749;51.636;4.948;2023-04-24T01:08:26;0.70;;;0.30;;
59189;SDS011;50749;51.636;4.948;2023-04-24T01:10:53;0.50;;;0.30;;
59189;SDS011;50749;51.636;4.948;2023-04-24T01:13:20;0.70;;;0.40;;
59189;SDS011;50749;51.636;4.948;2023-04-24T01:15:46;0.63;;;0.50;;
59189;SDS011;50749;51.636;4.948;2023-04-24T01:18:13;1.55;;;0.45;;
59189;SDS011;50749;51.636;4.948;2023-04-24T01:20:40;0.22;;;0.20;;
59189;SDS011;50749;51.636;4.948;2023-04-24T01:23:07;0.65;;;0.40;;
59189;SDS011;50749;51.636;4.948;2023-04-24T01:25:34;0.85;;;0.40;;
59189;SDS011;50749;51.636;4.948;2023-04-24T01:28:00;1.00;;;0.50;;
59189;SDS011;50749;51.636;4.948;2023-04-24T01:30:27;0.63;;;0.47;;
59189;SDS011;50749;51.636;4.948;2023-04-24T01:32:53;0.50;;;0.40;;
59189;SDS011;50749;51.636;4.948;2023-04-24T01:35:19;2.00;;;0.43;;
59189;SDS011;50749;51.636;4.948;2023-04-24T01:37:45;0.60;;;0.40;;
59189;SDS011;50749;51.636;4.948;2023-04-24T01:40:11;0.73;;;0.50;;
59189;SDS011;50749;51.636;4.948;2023-04-24T01:42:37;0.90;;;0.52;;
59189;SDS011;50749;51.636;4.948;2023-04-24T01:45:04;0.45;;;0.30;;
59189;SDS011;50749;51.636;4.948;2023-04-24T01:47:31;0.70;;;0.30;;
59189;SDS011;50749;51.636;4.948;2023-04-24T01:49:57;2.20;;;0.70;;
59189;SDS011;50749;51.636;4.948;2023-04-24T01:52:23;2.45;;;0.50;;
59189;SDS011;50749;51.636;4.948;2023-04-24T01:54:50;1.05;;;0.60;;
59189;SDS011;50749;51.636;4.948;2023-04-24T01:57:16;1.45;;;0.60;;
59189;SDS011;50749;51.636;4.948;2023-04-24T01:59:42;0.60;;;0.40;;
59189;SDS011;50749;51.636;4.948;2023-04-24T02:02:08;0.63;;;0.40;;
59189;SDS011;50749;51.636;4.948;2023-04-24T02:04:34;0.93;;;0.40;;
59189;SDS011;50749;51.636;4.948;2023-04-24T02:07:00;0.55;;;0.40;;
59189;SDS011;50749;51.636;4.948;2023-04-24T02:09:26;0.73;;;0.40;;
59189;SDS011;50749;51.636;4.948;2023-04-24T02:11:51;1.58;;;0.50;;
59189;SDS011;50749;51.636;4.948;2023-04-24T02:14:17;1.30;;;0.50;;
59189;SDS011;50749;51.636;4.948;2023-04-24T02:16:43;0.88;;;0.50;;
59189;SDS011;50749;51.636;4.948;2023-04-24T02:19:09;0.82;;;0.45;;
59189;SDS011;50749;51.636;4.948;2023-04-24T02:21:35;0.75;;;0.43;;
59189;SDS011;50749;51.636;4.948;2023-04-24T02:24:01;0.60;;;0.45;;
59189;SDS011;50749;51.636;4.948;2023-04-24T02:26:27;0.77;;;0.35;;
59189;SDS011;50749;51.636;4.948;2023-04-24T02:28:53;1.40;;;0.40;;
59189;SDS011;50749;51.636;4.948;2023-04-24T02:31:19;0.80;;;0.45;;
59189;SDS011;50749;51.636;4.948;2023-04-24T02:33:45;2.10;;;0.60;;
59189;SDS011;50749;51.636;4.948;2023-04-24T02:36:11;1.10;;;0.60;;
59189;SDS011;50749;51.636;4.948;2023-04-24T02:38:37;1.42;;;0.60;;
59189;SDS011;50749;51.636;4.948;2023-04-24T02:41:02;1.00;;;0.50;;
59189;SDS011;50749;51.636;4.948;2023-04-24T02:43:32;3.97;;;0.60;;
59189;SDS011;50749;51.636;4.948;2023-04-24T02:45:58;0.90;;;0.47;;
59189;SDS011;50749;51.636;4.948;2023-04-24T02:48:25;1.25;;;0.68;;
59189;SDS011;50749;51.636;4.948;2023-04-24T02:50:50;0.68;;;0.40;;
59189;SDS011;50749;51.636;4.948;2023-04-24T02:53:17;0.70;;;0.50;;
59189;SDS011;50749;51.636;4.948;2023-04-24T02:55:43;3.10;;;0.68;;
59189;SDS011;50749;51.636;4.948;2023-04-24T02:58:08;0.77;;;0.47;;
59189;SDS011;50749;51.636;4.948;2023-04-24T03:00:35;0.85;;;0.50;;
59189;SDS011;50749;51.636;4.948;2023-04-24T03:03:01;1.08;;;0.63;;
59189;SDS011;50749;51.636;4.948;2023-04-24T03:05:28;0.50;;;0.40;;
59189;SDS011;50749;51.636;4.948;2023-04-24T03:07:54;1.15;;;0.50;;
59189;SDS011;50749;51.636;4.948;2023-04-24T03:10:19;1.83;;;1.05;;
59189;SDS011;50749;51.636;4.948;2023-04-24T03:12:45;1.90;;;0.60;;
59189;SDS011;50749;51.636;4.948;2023-04-24T03:15:11;0.70;;;0.50;;
59189;SDS011;50749;51.636;4.948;2023-04-24T03:17:37;0.68;;;0.40;;
59189;SDS011;50749;51.636;4.948;2023-04-24T03:20:03;1.40;;;0.70;;
59189;SDS011;50749;51.636;4.948;2023-04-24T03:22:31;0.57;;;0.40;;
59189;SDS011;50749;51.636;4.948;2023-04-24T03:24:57;1.60;;;0.52;;
59189;SDS011;50749;51.636;4.948;2023-04-24T03:27:24;1.15;;;0.55;;
59189;SDS011;50749;51.636;4.948;2023-04-24T03:29:49;1.35;;;0.68;;
59189;SDS011;50749;51.636;4.948;2023-04-24T03:32:19;0.55;;;0.40;;
59189;SDS011;50749;51.636;4.948;2023-04-24T03:34:45;1.17;;;0.30;;
59189;SDS011;50749;51.636;4.948;2023-04-24T03:37:11;1.30;;;0.38;;
59189;SDS011;50749;51.636;4.948;2023-04-24T03:39:37;0.95;;;0.60;;
59189;SDS011;50749;51.636;4.948;2023-04-24T03:42:03;0.47;;;0.35;;
59189;SDS011;50749;51.636;4.948;2023-04-24T03:44:29;1.58;;;0.47;;
59189;SDS011;50749;51.636;4.948;2023-04-24T03:46:54;1.65;;;0.60;;
59189;SDS011;50749;51.636;4.948;2023-04-24T03:49:20;0.75;;;0.50;;
59189;SDS011;50749;51.636;4.948;2023-04-24T03:51:47;1.10;;;0.60;;
59189;SDS011;50749;51.636;4.948;2023-04-24T03:54:13;1.05;;;0.52;;
59189;SDS011;50749;51.636;4.948;2023-04-24T03:56:39;1.20;;;0.50;;
59189;SDS011;50749;51.636;4.948;2023-04-24T03:59:05;1.42;;;0.65;;
59189;SDS011;50749;51.636;4.948;2023-04-24T04:01:31;1.50;;;0.43;;
59189;SDS011;50749;51.636;4.948;2023-04-24T04:03:57;1.20;;;0.60;;
59189;SDS011;50749;51.636;4.948;2023-04-24T04:06:23;0.60;;;0.50;;
59189;SDS011;50749;51.636;4.948;2023-04-24T04:08:48;0.85;;;0.50;;
59189;SDS011;50749;51.636;4.948;2023-04-24T04:11:14;2.28;;;0.75;;
59189;SDS011;50749;51.636;4.948;2023-04-24T04:13:40;0.90;;;0.50;;
59189;SDS011;50749;51.636;4.948;2023-04-24T04:16:06;0.70;;;0.43;;
59189;SDS011;50749;51.636;4.948;2023-04-24T04:18:32;0.32;;;0.32;;
59189;SDS011;50749;51.636;4.948;2023-04-24T04:20:58;1.38;;;0.52;;
59189;SDS011;50749;51.636;4.948;2023-04-24T04:23:23;0.80;;;0.50;;
59189;SDS011;50749;51.636;4.948;2023-04-24T04:25:50;0.63;;;0.40;;
59189;SDS011;50749;51.636;4.948;2023-04-24T04:28:17;0.95;;;0.50;;
59189;SDS011;50749;51.636;4.948;2023-04-24T04:30:45;0.70;;;0.50;;
59189;SDS011;50749;51.636;4.948;2023-04-24T04:33:12;0.43;;;0.30;;
59189;SDS011;50749;51.636;4.948;2023-04-24T04:35:38;0.45;;;0.35;;
59189;SDS011;50749;51.636;4.948;2023-04-24T04:38:04;2.67;;;0.80;;
59189;SDS011;50749;51.636;4.948;2023-04-24T04:40:30;0.57;;;0.40;;
59189;SDS011;50749;51.636;4.948;2023-04-24T04:42:55;0.80;;;0.50;;
59189;SDS011;50749;51.636;4.948;2023-04-24T04:45:22;0.45;;;0.30;;
59189;SDS011;50749;51.636;4.948;2023-04-24T04:47:49;0.90;;;0.50;;
59189;SDS011;50749;51.636;4.948;2023-04-24T04:50:15;0.57;;;0.30;;
59189;SDS011;50749;51.636;4.948;2023-04-24T04:52:42;0.77;;;0.30;;
59189;SDS011;50749;51.636;4.948;2023-04-24T04:55:08;0.70;;;0.40;;
59189;SDS011;50749;51.636;4.948;2023-04-24T04:57:33;0.93;;;0.40;;
59189;SDS011;50749;51.636;4.948;2023-04-24T04:59:59;1.63;;;0.30;;
59189;SDS011;50749;51.636;4.948;2023-04-24T05:02:25;0.75;;;0.25;;
59189;SDS011;50749;51.636;4.948;2023-04-24T05:04:51;0.70;;;0.43;;
59189;SDS011;50749;51.636;4.948;2023-04-24T05:07:17;0.28;;;0.28;;
59189;SDS011;50749;51.636;4.948;2023-04-24T05:09:43;0.70;;;0.40;;
59189;SDS011;50749;51.636;4.948;2023-04-24T05:12:10;0.20;;;0.20;;
59189;SDS011;50749;51.636;4.948;2023-04-24T05:14:36;0.52;;;0.30;;
59189;SDS011;50749;51.636;4.948;2023-04-24T05:17:01;0.70;;;0.22;;
59189;SDS011;50749;51.636;4.948;2023-04-24T05:19:28;0.82;;;0.35;;
59189;SDS011;50749;51.636;4.948;2023-04-24T05:21:54;0.50;;;0.30;;
59189;SDS011;50749;51.636;4.948;2023-04-24T05:24:19;0.65;;;0.40;;
59189;SDS011;50749;51.636;4.948;2023-04-24T05:26:45;0.47;;;0.30;;
59189;SDS011;50749;51.636;4.948;2023-04-24T05:29:12;0.68;;;0.30;;
59189;SDS011;50749;51.636;4.948;2023-04-24T05:31:38;1.35;;;0.40;;
59189;SDS011;50749;51.636;4.948;2023-04-24T05:34:04;0.75;;;0.50;;
59189;SDS011;50749;51.636;4.948;2023-04-24T05:36:32;1.05;;;0.40;;
59189;SDS011;50749;51.636;4.948;2023-04-24T05:38:58;0.52;;;0.30;;
59189;SDS011;50749;51.636;4.948;2023-04-24T05:41:24;0.20;;;0.20;;
59189;SDS011;50749;51.636;4.948;2023-04-24T05:43:50;0.32;;;0.22;;
59189;SDS011;50749;51.636;4.948;2023-04-24T05:46:16;0.80;;;0.40;;
59189;SDS011;50749;51.636;4.948;2023-04-24T05:48:42;2.05;;;0.50;;
59189;SDS011;50749;51.636;4.948;2023-04-24T05:51:08;0.45;;;0.30;;
59189;SDS011;50749;51.636;4.948;2023-04-24T05:53:35;1.20;;;0.55;;
59189;SDS011;50749;51.636;4.948;2023-04-24T05:56:00;1.52;;;0.40;;
59189;SDS011;50749;51.636;4.948;2023-04-24T05:58:26;0.95;;;0.40;;
59189;SDS011;50749;51.636;4.948;2023-04-24T06:00:52;1.15;;;0.50;;
59189;SDS011;50749;51.636;4.948;2023-04-24T06:03:18;1.45;;;0.50;;
59189;SDS011;50749;51.636;4.948;2023-04-24T06:05:44;2.08;;;0.45;;
59189;SDS011;50749;51.636;4.948;2023-04-24T06:08:10;0.60;;;0.40;;
59189;SDS011;50749;51.636;4.948;2023-04-24T06:10:36;4.38;;;0.55;;
59189;SDS011;50749;51.636;4.948;2023-04-24T06:13:02;1.95;;;0.63;;
59189;SDS011;50749;51.636;4.948;2023-04-24T06:15:29;1.88;;;0.70;;
59189;SDS011;50749;51.636;4.948;2023-04-24T06:17:56;3.53;;;0.70;;
59189;SDS011;50749;51.636;4.948;2023-04-24T06:20:23;2.17;;;0.80;;
59189;SDS011;50749;51.636;4.948;2023-04-24T06:22:49;2.88;;;1.38;;
59189;SDS011;50749;51.636;4.948;2023-04-24T06:25:15;2.67;;;1.33;;
59189;SDS011;50749;51.636;4.948;2023-04-24T06:27:42;1.65;;;0.82;;
59189;SDS011;50749;51.636;4.948;2023-04-24T06:30:08;1.50;;;0.70;;
59189;SDS011;50749;51.636;4.948;2023-04-24T06:32:36;1.25;;;0.57;;
59189;SDS011;50749;51.636;4.948;2023-04-24T06:35:01;2.22;;;0.85;;
59189;SDS011;50749;51.636;4.948;2023-04-24T06:37:27;1.58;;;0.70;;
59189;SDS011;50749;51.636;4.948;2023-04-24T06:39:53;12.18;;;1.60;;
59189;SDS011;50749;51.636;4.948;2023-04-24T06:42:19;11.63;;;2.75;;
59189;SDS011;50749;51.636;4.948;2023-04-24T06:44:47;11.40;;;2.65;;
59189;SDS011;50749;51.636;4.948;2023-04-24T06:47:13;24.02;;;4.72;;
59189;SDS011;50749;51.636;4.948;2023-04-24T06:49:39;9.90;;;1.52;;
59189;SDS011;50749;51.636;4.948;2023-04-24T06:52:05;10.30;;;2.63;;
59189;SDS011;50749;51.636;4.948;2023-04-24T06:54:31;9.43;;;2.25;;
59189;SDS011;50749;51.636;4.948;2023-04-24T06:56:58;12.70;;;2.80;;
59189;SDS011;50749;51.636;4.948;2023-04-24T06:59:26;13.60;;;2.47;;
59189;SDS011;50749;51.636;4.948;2023-04-24T07:01:53;9.07;;;2.42;;
59189;SDS011;50749;51.636;4.948;2023-04-24T07:04:19;11.52;;;2.50;;
59189;SDS011;50749;51.636;4.948;2023-04-24T07:06:45;8.77;;;2.03;;
59189;SDS011;50749;51.636;4.948;2023-04-24T07:09:11;9.50;;;2.10;;
59189;SDS011;50749;51.636;4.948;2023-04-24T07:11:39;11.32;;;1.85;;
59189;SDS011;50749;51.636;4.948;2023-04-24T07:14:06;10.63;;;2.08;;
59189;SDS011;50749;51.636;4.948;2023-04-24T07:16:32;8.30;;;1.70;;
59189;SDS011;50749;51.636;4.948;2023-04-24T07:18:58;8.75;;;2.03;;
59189;SDS011;50749;51.636;4.948;2023-04-24T07:21:24;10.85;;;2.10;;
59189;SDS011;50749;51.636;4.948;2023-04-24T07:23:50;16.92;;;2.53;;
59189;SDS011;50749;51.636;4.948;2023-04-24T07:26:16;14.10;;;2.33;;
59189;SDS011;50749;51.636;4.948;2023-04-24T07:28:42;10.52;;;2.03;;
59189;SDS011;50749;51.636;4.948;2023-04-24T07:31:10;8.15;;;2.20;;
59189;SDS011;50749;51.636;4.948;2023-04-24T07:33:37;10.38;;;3.35;;
59189;SDS011;50749;51.636;4.948;2023-04-24T07:36:03;9.07;;;1.95;;
59189;SDS011;50749;51.636;4.948;2023-04-24T07:38:29;5.35;;;1.90;;
59189;SDS011;50749;51.636;4.948;2023-04-24T07:40:56;8.70;;;2.55;;
59189;SDS011;50749;51.636;4.948;2023-04-24T07:43:22;7.47;;;2.55;;
59189;SDS011;50749;51.636;4.948;2023-04-24T07:45:52;8.23;;;2.17;;
59189;SDS011;50749;51.636;4.948;2023-04-24T07:48:17;10.32;;;2.45;;
59189;SDS011;50749;51.636;4.948;2023-04-24T07:50:44;10.32;;;2.17;;
59189;SDS011;50749;51.636;4.948;2023-04-24T07:53:10;9.20;;;2.55;;
59189;SDS011;50749;51.636;4.948;2023-04-24T07:55:36;11.27;;;1.88;;
59189;SDS011;50749;51.636;4.948;2023-04-24T07:58:02;6.50;;;1.50;;
59189;SDS011;50749;51.636;4.948;2023-04-24T08:00:28;6.30;;;1.85;;
59189;SDS011;50749;51.636;4.948;2023-04-24T08:02:53;7.30;;;2.25;;
59189;SDS011;50749;51.636;4.948;2023-04-24T08:05:19;9.15;;;1.70;;
59189;SDS011;50749;51.636;4.948;2023-04-24T08:07:45;6.18;;;1.85;;
59189;SDS011;50749;51.636;4.948;2023-04-24T08:10:14;4.07;;;1.77;;
59189;SDS011;50749;51.636;4.948;2023-04-24T08:12:40;7.07;;;1.55;;
59189;SDS011;50749;51.636;4.948;2023-04-24T08:15:06;7.05;;;1.83;;
59189;SDS011;50749;51.636;4.948;2023-04-24T08:17:33;7.35;;;1.65;;
59189;SDS011;50749;51.636;4.948;2023-04-24T08:20:01;6.45;;;1.88;;
59189;SDS011;50749;51.636;4.948;2023-04-24T08:22:27;5.70;;;1.80;;
59189;SDS011;50749;51.636;4.948;2023-04-24T08:24:54;5.00;;;1.63;;
59189;SDS011;50749;51.636;4.948;2023-04-24T08:27:21;6.88;;;1.60;;
59189;SDS011;50749;51.636;4.948;2023-04-24T08:29:47;5.30;;;1.33;;
59189;SDS011;50749;51.636;4.948;2023-04-24T08:32:12;6.68;;;1.70;;
59189;SDS011;50749;51.636;4.948;2023-04-24T08:34:38;7.65;;;1.73;;
59189;SDS011;50749;51.636;4.948;2023-04-24T08:37:04;5.28;;;1.40;;
59189;SDS011;50749;51.636;4.948;2023-04-24T08:39:30;6.53;;;1.50;;
59189;SDS011;50749;51.636;4.948;2023-04-24T08:41:56;5.30;;;1.55;;
59189;SDS011;50749;51.636;4.948;2023-04-24T08:44:22;4.20;;;1.38;;
59189;SDS011;50749;51.636;4.948;2023-04-24T08:46:48;5.50;;;1.50;;
59189;SDS011;50749;51.636;4.948;2023-04-24T08:49:14;4.07;;;1.30;;
59189;SDS011;50749;51.636;4.948;2023-04-24T08:51:45;4.88;;;1.50;;
59189;SDS011;50749;51.636;4.948;2023-04-24T08:54:13;5.30;;;1.45;;
59189;SDS011;50749;51.636;4.948;2023-04-24T08:56:39;3.20;;;1.42;;
59189;SDS011;50749;51.636;4.948;2023-04-24T08:59:11;5.57;;;1.20;;
59189;SDS011;50749;51.636;4.948;2023-04-24T09:01:38;5.25;;;1.33;;
59189;SDS011;50749;51.636;4.948;2023-04-24T09:04:06;5.90;;;1.75;;
59189;SDS011;50749;51.636;4.948;2023-04-24T09:06:38;3.75;;;1.17;;
59189;SDS011;50749;51.636;4.948;2023-04-24T09:09:04;6.70;;;1.42;;
59189;SDS011;50749;51.636;4.948;2023-04-24T09:11:31;4.22;;;1.25;;
59189;SDS011;50749;51.636;4.948;2023-04-24T09:13:58;2.90;;;1.20;;
59189;SDS011;50749;51.636;4.948;2023-04-24T09:16:25;5.25;;;1.35;;
59189;SDS011;50749;51.636;4.948;2023-04-24T09:18:52;3.88;;;1.45;;
59189;SDS011;50749;51.636;4.948;2023-04-24T09:21:20;3.17;;;1.27;;
59189;SDS011;50749;51.636;4.948;2023-04-24T09:24:06;3.08;;;1.25;;
59189;SDS011;50749;51.636;4.948;2023-04-24T09:26:43;4.13;;;1.23;;
59189;SDS011;50749;51.636;4.948;2023-04-24T09:29:13;4.47;;;1.20;;
59189;SDS011;50749;51.636;4.948;2023-04-24T09:31:43;3.70;;;1.17;;
59189;SDS011;50749;51.636;4.948;2023-04-24T09:34:11;3.38;;;0.90;;
59189;SDS011;50749;51.636;4.948;2023-04-24T09:36:38;4.50;;;1.33;;
59189;SDS011;50749;51.636;4.948;2023-04-24T09:39:07;4.55;;;1.35;;
59189;SDS011;50749;51.636;4.948;2023-04-24T09:41:43;3.35;;;1.30;;
59189;SDS011;50749;51.636;4.948;2023-04-24T09:44:15;4.15;;;1.35;;
59189;SDS011;50749;51.636;4.948;2023-04-24T09:46:43;1.88;;;1.48;;
59189;SDS011;50749;51.636;4.948;2023-04-24T09:49:14;2.53;;;0.95;;
59189;SDS011;50749;51.636;4.948;2023-04-24T09:51:42;3.45;;;1.02;;
59189;SDS011;50749;51.636;4.948;2023-04-24T09:54:15;3.13;;;0.98;;
59189;SDS011;50749;51.636;4.948;2023-04-24T09:56:46;2.70;;;0.82;;
59189;SDS011;50749;51.636;4.948;2023-04-24T09:59:18;3.30;;;1.15;;
59189;SDS011;50749;51.636;4.948;2023-04-24T10:01:45;3.17;;;1.02;;
59189;SDS011;50749;51.636;4.948;2023-04-24T10:06:47;2.65;;;1.10;;
59189;SDS011;50749;51.636;4.948;2023-04-24T10:09:15;5.20;;;1.30;;
59189;SDS011;50749;51.636;4.948;2023-04-24T10:11:42;2.13;;;0.90;;
59189;SDS011;50749;51.636;4.948;2023-04-24T10:14:12;4.32;;;1.30;;
59189;SDS011;50749;51.636;4.948;2023-04-24T10:16:39;3.50;;;1.20;;
59189;SDS011;50749;51.636;4.948;2023-04-24T10:19:06;2.55;;;0.80;;
59189;SDS011;50749;51.636;4.948;2023-04-24T10:21:32;2.67;;;0.98;;
59189;SDS011;50749;51.636;4.948;2023-04-24T10:23:58;2.38;;;0.75;;
59189;SDS011;50749;51.636;4.948;2023-04-24T10:26:25;2.13;;;0.95;;
59189;SDS011;50749;51.636;4.948;2023-04-24T10:28:53;2.65;;;1.00;;
59189;SDS011;50749;51.636;4.948;2023-04-24T10:31:19;1.88;;;0.98;;
59189;SDS011;50749;51.636;4.948;2023-04-24T10:33:46;2.20;;;0.70;;
59189;SDS011;50749;51.636;4.948;2023-04-24T10:36:15;2.08;;;1.00;;
59189;SDS011;50749;51.636;4.948;2023-04-24T10:38:42;3.90;;;1.20;;
59189;SDS011;50749;51.636;4.948;2023-04-24T10:41:11;1.85;;;0.82;;
59189;SDS011;50749;51.636;4.948;2023-04-24T10:43:45;1.58;;;0.60;;
59189;SDS011;50749;51.636;4.948;2023-04-24T10:46:16;2.25;;;0.73;;
59189;SDS011;50749;51.636;4.948;2023-04-24T10:48:51;1.17;;;0.70;;
59189;SDS011;50749;51.636;4.948;2023-04-24T10:51:21;2.90;;;0.85;;
59189;SDS011;50749;51.636;4.948;2023-04-24T10:53:49;2.58;;;0.60;;
59189;SDS011;50749;51.636;4.948;2023-04-24T10:56:17;1.15;;;0.65;;
59189;SDS011;50749;51.636;4.948;2023-04-24T10:58:44;3.03;;;0.85;;
59189;SDS011;50749;51.636;4.948;2023-04-24T11:01:28;2.20;;;0.85;;
59189;SDS011;50749;51.636;4.948;2023-04-24T11:03:56;2.80;;;0.70;;
59189;SDS011;50749;51.636;4.948;2023-04-24T11:06:34;3.78;;;0.70;;
59189;SDS011;50749;51.636;4.948;2023-04-24T11:09:05;2.70;;;0.82;;
59189;SDS011;50749;51.636;4.948;2023-04-24T11:11:33;2.13;;;0.80;;
59189;SDS011;50749;51.636;4.948;2023-04-24T11:16:33;1.75;;;0.60;;
59189;SDS011;50749;51.636;4.948;2023-04-24T11:19:21;1.63;;;0.70;;
59189;SDS011;50749;51.636;4.948;2023-04-24T11:24:27;1.48;;;0.57;;
59189;SDS011;50749;51.636;4.948;2023-04-24T11:32:29;2.20;;;0.60;;
59189;SDS011;50749;51.636;4.948;2023-04-24T11:37:33;1.45;;;0.75;;
59189;SDS011;50749;51.636;4.948;2023-04-24T11:40:01;0.90;;;0.60;;
59189;SDS011;50749;51.636;4.948;2023-04-24T11:42:33;1.60;;;0.50;;
59189;SDS011;50749;51.636;4.948;2023-04-24T11:45:10;2.15;;;0.60;;
59189;SDS011;50749;51.636;4.948;2023-04-24T11:47:38;0.90;;;0.52;;
59189;SDS011;50749;51.636;4.948;2023-04-24T11:50:05;2.17;;;0.63;;
59189;SDS011;50749;51.636;4.948;2023-04-24T11:52:33;2.33;;;0.90;;
59189;SDS011;50749;51.636;4.948;2023-04-24T11:55:03;1.63;;;0.60;;
59189;SDS011;50749;51.636;4.948;2023-04-24T11:57:29;0.88;;;0.60;;
59189;SDS011;50749;51.636;4.948;2023-04-24T11:59:59;1.23;;;0.45;;
59189;SDS011;50749;51.636;4.948;2023-04-24T12:02:26;0.80;;;0.50;;
59189;SDS011;50749;51.636;4.948;2023-04-24T12:04:53;2.00;;;0.70;;
59189;SDS011;50749;51.636;4.948;2023-04-24T12:07:19;1.13;;;0.60;;
59189;SDS011;50749;51.636;4.948;2023-04-24T12:09:46;1.83;;;0.50;;
59189;SDS011;50749;51.636;4.948;2023-04-24T12:12:13;2.60;;;0.60;;
59189;SDS011;50749;51.636;4.948;2023-04-24T12:14:42;1.60;;;0.50;;
59189;SDS011;50749;51.636;4.948;2023-04-24T12:17:15;0.60;;;0.50;;
59189;SDS011;50749;51.636;4.948;2023-04-24T12:19:46;1.83;;;0.60;;
59189;SDS011;50749;51.636;4.948;2023-04-24T12:22:12;1.45;;;0.40;;
59189;SDS011;50749;51.636;4.948;2023-04-24T12:27:25;2.15;;;0.50;;
59189;SDS011;50749;51.636;4.948;2023-04-24T12:29:56;0.90;;;0.40;;
59189;SDS011;50749;51.636;4.948;2023-04-24T12:32:23;0.65;;;0.40;;
59189;SDS011;50749;51.636;4.948;2023-04-24T12:34:51;0.80;;;0.40;;
59189;SDS011;50749;51.636;4.948;2023-04-24T12:37:20;2.25;;;0.93;;
59189;SDS011;50749;51.636;4.948;2023-04-24T12:39:58;1.70;;;0.40;;
59189;SDS011;50749;51.636;4.948;2023-04-24T12:42:32;1.92;;;0.60;;
59189;SDS011;50749;51.636;4.948;2023-04-24T12:44:59;3.05;;;0.50;;
59189;SDS011;50749;51.636;4.948;2023-04-24T12:47:26;1.45;;;0.63;;
59189;SDS011;50749;51.636;4.948;2023-04-24T12:49:53;1.08;;;0.47;;
59189;SDS011;50749;51.636;4.948;2023-04-24T12:52:21;1.00;;;0.40;;
59189;SDS011;50749;51.636;4.948;2023-04-24T12:54:55;0.98;;;0.50;;
59189;SDS011;50749;51.636;4.948;2023-04-24T12:57:22;1.02;;;0.45;;
59189;SDS011;50749;51.636;4.948;2023-04-24T12:59:49;0.70;;;0.40;;
59189;SDS011;50749;51.636;4.948;2023-04-24T13:02:15;0.63;;;0.45;;
59189;SDS011;50749;51.636;4.948;2023-04-24T13:04:45;1.63;;;0.57;;
59189;SDS011;50749;51.636;4.948;2023-04-24T13:07:12;1.08;;;0.50;;
59189;SDS011;50749;51.636;4.948;2023-04-24T13:09:39;0.65;;;0.45;;
59189;SDS011;50749;51.636;4.948;2023-04-24T13:12:05;0.82;;;0.30;;
59189;SDS011;50749;51.636;4.948;2023-04-24T13:14:32;0.80;;;0.45;;
59189;SDS011;50749;51.636;4.948;2023-04-24T13:16:58;1.70;;;0.50;;
59189;SDS011;50749;51.636;4.948;2023-04-24T13:19:24;1.52;;;0.55;;
59189;SDS011;50749;51.636;4.948;2023-04-24T13:21:52;0.43;;;0.40;;
59189;SDS011;50749;51.636;4.948;2023-04-24T13:24:18;2.05;;;0.50;;
59189;SDS011;50749;51.636;4.948;2023-04-24T13:26:44;3.53;;;0.68;;
59189;SDS011;50749;51.636;4.948;2023-04-24T13:29:10;1.02;;;0.40;;
59189;SDS011;50749;51.636;4.948;2023-04-24T13:31:36;0.70;;;0.30;;
59189;SDS011;50749;51.636;4.948;2023-04-24T13:34:02;0.50;;;0.40;;
59189;SDS011;50749;51.636;4.948;2023-04-24T13:36:29;0.80;;;0.38;;
59189;SDS011;50749;51.636;4.948;2023-04-24T13:38:55;1.40;;;0.60;;
59189;SDS011;50749;51.636;4.948;2023-04-24T13:41:21;1.10;;;1.00;;
59189;SDS011;50749;51.636;4.948;2023-04-24T13:43:47;1.00;;;0.47;;
59189;SDS011;50749;51.636;4.948;2023-04-24T13:46:13;2.65;;;0.70;;
59189;SDS011;50749;51.636;4.948;2023-04-24T13:48:38;1.67;;;0.47;;
59189;SDS011;50749;51.636;4.948;2023-04-24T13:51:04;0.60;;;0.43;;
59189;SDS011;50749;51.636;4.948;2023-04-24T13:53:30;1.38;;;0.70;;
59189;SDS011;50749;51.636;4.948;2023-04-24T13:55:57;0.93;;;0.40;;
59189;SDS011;50749;51.636;4.948;2023-04-24T13:58:23;2.47;;;0.70;;
59189;SDS011;50749;51.636;4.948;2023-04-24T14:00:49;3.22;;;0.77;;
59189;SDS011;50749;51.636;4.948;2023-04-24T14:03:15;0.82;;;0.55;;
59189;SDS011;50749;51.636;4.948;2023-04-24T14:05:41;1.10;;;0.40;;
59189;SDS011;50749;51.636;4.948;2023-04-24T14:08:06;0.95;;;0.52;;
59189;SDS011;50749;51.636;4.948;2023-04-24T14:10:33;1.70;;;0.60;;
59189;SDS011;50749;51.636;4.948;2023-04-24T14:12:58;3.22;;;0.80;;
59189;SDS011;50749;51.636;4.948;2023-04-24T14:15:24;1.35;;;0.50;;
59189;SDS011;50749;51.636;4.948;2023-04-24T14:17:50;0.85;;;0.50;;
59189;SDS011;50749;51.636;4.948;2023-04-24T14:20:17;0.95;;;0.38;;
59189;SDS011;50749;51.636;4.948;2023-04-24T14:22:43;0.82;;;0.40;;
59189;SDS011;50749;51.636;4.948;2023-04-24T14:25:09;0.80;;;0.40;;
59189;SDS011;50749;51.636;4.948;2023-04-24T14:27:35;1.23;;;0.60;;
59189;SDS011;50749;51.636;4.948;2023-04-24T14:30:01;2.63;;;0.45;;
59189;SDS011;50749;51.636;4.948;2023-04-24T14:32:27;1.52;;;0.52;;
59189;SDS011;50749;51.636;4.948;2023-04-24T14:34:53;1.05;;;0.47;;
59189;SDS011;50749;51.636;4.948;2023-04-24T14:37:19;0.73;;;0.40;;
59189;SDS011;50749;51.636;4.948;2023-04-24T14:39:45;1.10;;;0.55;;
59189;SDS011;50749;51.636;4.948;2023-04-24T14:42:11;0.88;;;0.30;;
59189;SDS011;50749;51.636;4.948;2023-04-24T14:44:37;1.13;;;0.43;;
59189;SDS011;50749;51.636;4.948;2023-04-24T14:47:03;0.77;;;0.40;;
59189;SDS011;50749;51.636;4.948;2023-04-24T14:49:29;1.13;;;0.47;;
59189;SDS011;50749;51.636;4.948;2023-04-24T14:51:55;1.65;;;0.55;;
59189;SDS011;50749;51.636;4.948;2023-04-24T14:54:21;1.73;;;0.50;;
59189;SDS011;50749;51.636;4.948;2023-04-24T14:56:48;1.50;;;0.60;;
59189;SDS011;50749;51.636;4.948;2023-04-24T14:59:15;2.05;;;0.52;;
59189;SDS011;50749;51.636;4.948;2023-04-24T15:01:40;1.17;;;0.52;;
59189;SDS011;50749;51.636;4.948;2023-04-24T15:04:06;1.63;;;0.38;;